Time;durP1;ratioP1;P1;durP2;ratioP2;P2;SDS_P1;SDS_P2;PMS_P1;PMS_P2;Temp;Humidity;BMP_temperature;BMP_pressure;BME280_temperature;BME280_humidity;BME280_pressure;Samples;Min_cycle;Max_cycle;Signal;HPM_P1;HPM_P2
2021/09/24 00:01:29;;;;;;;9.10;5.57;;;;;;;;;;5092231;28;20515;-58
2021/09/24 00:03:58;;;;;;;8.67;5.17;;;;;;;;;;5091749;28;20554;-56
2021/09/24 00:06:25;;;;;;;13.23;6.30;;;;;;;;;;5092021;28;20502;-62
2021/09/24 00:08:53;;;;;;;8.33;4.80;;;;;;;;;;5092194;28;20437;-56
2021/09/24 00:11:20;;;;;;;9.50;5.23;;;;;;;;;;5091498;28;20464;-62
2021/09/24 00:13:48;;;;;;;9.70;4.57;;;;;;;;;;5091294;28;20456;-59
2021/09/24 00:16:16;;;;;;;10.33;4.47;;;;;;;;;;5091915;28;20484;-58
2021/09/24 00:18:43;;;;;;;13.13;4.43;;;;;;;;;;5091813;28;20460;-49
2021/09/24 00:21:12;;;;;;;7.10;4.20;;;;;;;;;;5092619;28;20525;-57
2021/09/24 00:23:44;;;;;;;8.03;5.13;;;;;;;;;;5092611;28;20639;-56
2021/09/24 00:26:11;;;;;;;9.00;4.90;;;;;;;;;;5092577;28;20460;-61
2021/09/24 00:28:38;;;;;;;9.77;4.83;;;;;;;;;;5092162;28;20466;-61
2021/09/24 00:31:06;;;;;;;12.13;5.40;;;;;;;;;;5092072;28;20475;-58
2021/09/24 00:33:33;;;;;;;10.77;4.70;;;;;;;;;;5092527;28;20482;-61
2021/09/24 00:36:00;;;;;;;8.57;4.77;;;;;;;;;;5092199;28;20445;-62
2021/09/24 00:38:29;;;;;;;8.50;4.47;;;;;;;;;;5092346;28;20459;-61
2021/09/24 00:40:57;;;;;;;7.70;4.13;;;;;;;;;;5092065;28;20460;-54
2021/09/24 00:43:24;;;;;;;7.33;4.37;;;;;;;;;;5090866;28;20491;-59
2021/09/24 00:45:57;;;;;;;11.63;4.10;;;;;;;;;;5092018;28;20491;-58
2021/09/24 00:48:24;;;;;;;7.20;3.67;;;;;;;;;;5091318;28;20456;-59
2021/09/24 00:50:52;;;;;;;7.20;4.50;;;;;;;;;;5092116;28;20433;-60
2021/09/24 00:53:21;;;;;;;7.90;3.20;;;;;;;;;;5090846;28;20456;-55
2021/09/24 00:55:51;;;;;;;11.73;5.17;;;;;;;;;;5106280;28;20487;-60
2021/09/24 00:58:18;;;;;;;8.20;4.77;;;;;;;;;;5114379;28;20450;-58
2021/09/24 01:00:45;;;;;;;8.97;4.43;;;;;;;;;;5111560;28;20451;-58
2021/09/24 01:03:13;;;;;;;9.60;5.17;;;;;;;;;;5111911;28;20475;-58
2021/09/24 01:05:51;;;;;;;7.93;3.90;;;;;;;;;;5111246;28;20520;-56
2021/09/24 01:08:18;;;;;;;6.87;3.90;;;;;;;;;;5111591;28;20455;-60
2021/09/24 01:10:45;;;;;;;7.07;4.13;;;;;;;;;;5115435;28;20558;-59
2021/09/24 01:13:14;;;;;;;11.17;4.20;;;;;;;;;;5132420;28;20498;-57
2021/09/24 01:15:42;;;;;;;6.00;4.40;;;;;;;;;;5120645;28;20512;-57
2021/09/24 01:18:10;;;;;;;8.13;4.20;;;;;;;;;;5112385;28;20453;-57
2021/09/24 01:20:39;;;;;;;10.03;4.10;;;;;;;;;;5112728;28;20443;-60
2021/09/24 01:23:09;;;;;;;5.93;3.70;;;;;;;;;;5117649;28;20550;-60
2021/09/24 01:25:36;;;;;;;16.33;4.97;;;;;;;;;;5117004;28;20519;-61
2021/09/24 01:28:04;;;;;;;9.00;4.30;;;;;;;;;;5112575;28;20459;-58
2021/09/24 01:30:32;;;;;;;8.47;4.50;;;;;;;;;;5115937;28;20446;-54
2021/09/24 01:33:00;;;;;;;8.83;4.73;;;;;;;;;;5131952;28;20450;-62
2021/09/24 01:35:30;;;;;;;5.03;3.70;;;;;;;;;;5131892;28;20462;-60
2021/09/24 01:37:57;;;;;;;6.73;4.40;;;;;;;;;;5116206;28;20455;-58
2021/09/24 01:40:26;;;;;;;7.20;4.30;;;;;;;;;;5113249;28;20463;-62
2021/09/24 01:42:54;;;;;;;7.53;4.70;;;;;;;;;;5125123;28;20545;-60
2021/09/24 01:45:22;;;;;;;6.33;4.10;;;;;;;;;;5122062;28;20430;-59
2021/09/24 01:47:58;;;;;;;8.90;5.00;;;;;;;;;;5132237;28;20431;-57
2021/09/24 01:50:26;;;;;;;9.07;4.90;;;;;;;;;;5131288;28;20454;-60
2021/09/24 01:52:56;;;;;;;10.80;4.77;;;;;;;;;;5132486;28;20442;-60
2021/09/24 01:55:26;;;;;;;10.27;4.40;;;;;;;;;;5131239;28;20792;-55
2021/09/24 01:57:54;;;;;;;5.77;3.87;;;;;;;;;;5132345;28;20539;-55
2021/09/24 02:00:22;;;;;;;8.70;5.17;;;;;;;;;;5131302;28;20468;-59
2021/09/24 02:02:56;;;;;;;10.07;5.00;;;;;;;;;;5112505;28;20498;-58
2021/09/24 02:05:26;;;;;;;9.20;5.70;;;;;;;;;;5112396;28;20489;-58
2021/09/24 02:07:53;;;;;;;11.67;5.03;;;;;;;;;;5111990;28;20508;-60
2021/09/24 02:10:23;;;;;;;12.63;5.77;;;;;;;;;;5110857;28;20459;-61
2021/09/24 02:12:57;;;;;;;6.83;6.03;;;;;;;;;;5111700;28;20451;-58
2021/09/24 02:15:25;;;;;;;7.70;6.10;;;;;;;;;;5110787;28;20546;-60
2021/09/24 02:17:56;;;;;;;7.50;5.27;;;;;;;;;;5111131;28;20528;-61
2021/09/24 02:20:23;;;;;;;8.73;5.43;;;;;;;;;;5111624;28;20459;-60
2021/09/24 02:22:50;;;;;;;13.70;6.77;;;;;;;;;;5114019;28;20493;-56
2021/09/24 02:25:18;;;;;;;11.33;5.50;;;;;;;;;;5114167;28;20455;-58
2021/09/24 02:27:45;;;;;;;8.80;6.47;;;;;;;;;;5114930;28;20463;-60
2021/09/24 02:30:14;;;;;;;12.00;6.50;;;;;;;;;;5113633;28;20431;-58
2021/09/24 02:32:42;;;;;;;15.40;7.07;;;;;;;;;;5115040;28;20447;-54
2021/09/24 02:35:10;;;;;;;9.00;6.27;;;;;;;;;;5114471;28;20565;-58
2021/09/24 02:37:37;;;;;;;13.93;7.10;;;;;;;;;;5114578;28;20459;-59
2021/09/24 02:40:05;;;;;;;14.53;7.00;;;;;;;;;;5113964;28;20459;-60
2021/09/24 02:42:32;;;;;;;11.20;6.80;;;;;;;;;;5121499;28;20455;-61
2021/09/24 02:45:00;;;;;;;10.90;7.43;;;;;;;;;;5113410;28;20483;-56
2021/09/24 02:47:29;;;;;;;11.90;7.63;;;;;;;;;;5114021;28;20519;-56
2021/09/24 02:49:56;;;;;;;13.77;8.87;;;;;;;;;;5113742;28;20447;-59
2021/09/24 02:52:27;;;;;;;15.00;8.70;;;;;;;;;;5129685;28;20454;-61
2021/09/24 02:54:55;;;;;;;9.87;7.40;;;;;;;;;;5131985;28;20467;-61
2021/09/24 02:57:22;;;;;;;15.03;8.90;;;;;;;;;;5133621;28;20569;-57
2021/09/24 02:59:49;;;;;;;14.37;10.20;;;;;;;;;;5134696;28;20579;-59
2021/09/24 03:02:17;;;;;;;14.00;9.37;;;;;;;;;;5128710;28;20451;-57
2021/09/24 03:04:49;;;;;;;15.57;9.90;;;;;;;;;;5114085;28;20490;-60
2021/09/24 03:07:18;;;;;;;13.80;9.93;;;;;;;;;;5114422;28;20459;-58
2021/09/24 03:09:45;;;;;;;18.13;9.60;;;;;;;;;;5114213;28;20463;-56
2021/09/24 03:12:13;;;;;;;17.03;9.63;;;;;;;;;;5114327;28;20463;-55
2021/09/24 03:14:40;;;;;;;13.97;9.53;;;;;;;;;;5113131;28;20510;-54
2021/09/24 03:17:07;;;;;;;14.77;9.60;;;;;;;;;;5116958;28;20993;-60
2021/09/24 03:19:39;;;;;;;18.83;10.97;;;;;;;;;;5133739;28;20446;-61
2021/09/24 03:22:08;;;;;;;14.43;9.40;;;;;;;;;;5131158;28;20479;-58
2021/09/24 03:24:36;;;;;;;12.80;9.57;;;;;;;;;;5113679;28;20487;-58
2021/09/24 03:27:03;;;;;;;15.70;9.10;;;;;;;;;;5113618;28;20466;-61
2021/09/24 03:29:31;;;;;;;14.00;9.80;;;;;;;;;;5112598;28;20489;-59
2021/09/24 03:31:58;;;;;;;16.03;10.13;;;;;;;;;;5112745;28;20462;-57
2021/09/24 03:34:26;;;;;;;15.43;12.17;;;;;;;;;;5113467;28;20455;-59
2021/09/24 03:36:54;;;;;;;16.30;11.97;;;;;;;;;;5113410;28;20495;-60
2021/09/24 03:39:25;;;;;;;19.03;12.23;;;;;;;;;;5114499;28;20522;-60
2021/09/24 03:41:54;;;;;;;16.77;11.70;;;;;;;;;;5126334;28;20457;-58
2021/09/24 03:44:24;;;;;;;14.80;10.87;;;;;;;;;;5131737;28;20492;-57
2021/09/24 03:46:52;;;;;;;19.60;11.73;;;;;;;;;;5129586;28;20869;-57
2021/09/24 03:49:19;;;;;;;19.10;12.70;;;;;;;;;;5127232;28;20509;-59
2021/09/24 03:51:49;;;;;;;13.43;10.80;;;;;;;;;;5128249;28;20627;-61
2021/09/24 03:54:18;;;;;;;31.40;23.37;;;;;;;;;;5131275;28;20482;-57
2021/09/24 03:56:47;;;;;;;20.90;13.73;;;;;;;;;;5132857;28;20454;-59
2021/09/24 03:59:20;;;;;;;23.50;14.23;;;;;;;;;;5129943;28;20521;-61
2021/09/24 04:01:48;;;;;;;21.30;14.13;;;;;;;;;;5112476;28;20443;-57
2021/09/24 04:04:15;;;;;;;25.77;15.97;;;;;;;;;;5131139;28;20490;-57
2021/09/24 04:06:42;;;;;;;19.50;14.27;;;;;;;;;;5132445;28;20462;-59
2021/09/24 04:09:10;;;;;;;19.50;13.70;;;;;;;;;;5130495;28;20547;-58
2021/09/24 04:11:38;;;;;;;22.50;15.33;;;;;;;;;;5132842;28;20458;-59
2021/09/24 04:14:07;;;;;;;20.93;14.07;;;;;;;;;;5121466;28;20455;-56
2021/09/24 04:16:35;;;;;;;23.00;14.80;;;;;;;;;;5111444;28;20447;-60
2021/09/24 04:19:05;;;;;;;26.23;15.40;;;;;;;;;;5111419;28;20439;-56
2021/09/24 04:21:34;;;;;;;23.93;14.80;;;;;;;;;;5116802;28;20481;-58
2021/09/24 04:24:01;;;;;;;20.57;14.10;;;;;;;;;;5118981;28;20928;-56
2021/09/24 04:26:33;;;;;;;19.03;14.30;;;;;;;;;;5124335;28;20476;-60
2021/09/24 04:29:03;;;;;;;19.30;14.70;;;;;;;;;;5117471;28;20736;-57
2021/09/24 04:31:35;;;;;;;20.20;13.43;;;;;;;;;;5125076;28;20454;-59
2021/09/24 04:34:13;;;;;;;24.60;15.63;;;;;;;;;;5116010;28;20467;-61
2021/09/24 04:36:46;;;;;;;16.70;14.30;;;;;;;;;;5125879;27;20493;-57
2021/09/24 04:39:13;;;;;;;21.80;16.40;;;;;;;;;;5143226;27;20453;-53
2021/09/24 04:41:48;;;;;;;24.40;16.10;;;;;;;;;;5133308;27;20446;-59
2021/09/24 04:44:16;;;;;;;23.70;16.80;;;;;;;;;;5136837;27;20517;-61
2021/09/24 04:46:47;;;;;;;26.43;16.00;;;;;;;;;;5152546;27;20469;-58
2021/09/24 04:49:16;;;;;;;23.80;16.67;;;;;;;;;;5145092;27;20461;-57
2021/09/24 04:51:44;;;;;;;24.57;17.60;;;;;;;;;;5132053;28;20484;-60
2021/09/24 04:54:11;;;;;;;23.87;17.10;;;;;;;;;;5139563;27;20427;-59
2021/09/24 04:56:57;;;;;;;24.77;16.47;;;;;;;;;;5140697;27;20446;-55
2021/09/24 04:59:25;;;;;;;18.70;15.33;;;;;;;;;;5147959;27;20437;-57
2021/09/24 05:01:54;;;;;;;22.20;15.90;;;;;;;;;;5136746;27;20471;-58
2021/09/24 05:04:22;;;;;;;21.87;16.07;;;;;;;;;;5140366;27;20553;-62
2021/09/24 05:06:52;;;;;;;19.87;16.60;;;;;;;;;;5145956;27;20477;-61
2021/09/24 05:09:23;;;;;;;20.23;15.13;;;;;;;;;;5143538;28;20494;-60
2021/09/24 05:11:50;;;;;;;21.47;15.60;;;;;;;;;;5149794;28;20517;-56
2021/09/24 05:14:32;;;;;;;20.90;16.33;;;;;;;;;;5141855;28;20560;-62
2021/09/24 05:20:06;;;;;;;21.63;15.67;;;;;;;;;;5147261;28;20441;-61
2021/09/24 05:22:35;;;;;;;23.90;16.90;;;;;;;;;;5143612;28;20461;-61
2021/09/24 05:25:02;;;;;;;24.20;16.93;;;;;;;;;;5131679;28;20543;-56
2021/09/24 05:27:30;;;;;;;23.20;17.40;;;;;;;;;;5127731;28;20466;-58
2021/09/24 05:30:06;;;;;;;26.37;18.07;;;;;;;;;;5128012;28;20491;-61
2021/09/24 05:32:35;;;;;;;23.47;16.30;;;;;;;;;;5130636;28;20454;-61
2021/09/24 05:35:09;;;;;;;22.13;16.93;;;;;;;;;;5131676;28;20454;-58
2021/09/24 05:40:35;;;;;;;20.93;15.90;;;;;;;;;;5110937;28;20729;-60
2021/09/24 05:43:03;;;;;;;24.17;18.63;;;;;;;;;;5109666;28;20455;-61
2021/09/24 05:45:32;;;;;;;30.97;18.53;;;;;;;;;;5109942;28;20487;-56
2021/09/24 05:48:16;;;;;;;26.47;19.70;;;;;;;;;;5127998;28;20515;-62
2021/09/24 05:50:46;;;;;;;30.13;20.20;;;;;;;;;;5130050;28;20502;-57
2021/09/24 05:53:33;;;;;;;25.20;19.07;;;;;;;;;;5128094;28;20454;-61
2021/09/24 05:56:06;;;;;;;25.60;20.20;;;;;;;;;;5127620;28;20458;-60
2021/09/24 05:58:34;;;;;;;22.53;19.13;;;;;;;;;;5127650;28;20449;-55
2021/09/24 06:01:02;;;;;;;30.53;20.97;;;;;;;;;;5121488;28;20439;-61
2021/09/24 06:03:35;;;;;;;27.10;21.43;;;;;;;;;;5114986;28;20512;-55
2021/09/24 06:06:09;;;;;;;26.83;20.30;;;;;;;;;;5130428;28;20734;-58
2021/09/24 06:08:36;;;;;;;28.00;21.50;;;;;;;;;;5120449;28;20504;-60
2021/09/24 06:11:09;;;;;;;30.90;20.17;;;;;;;;;;5117616;28;20499;-58
2021/09/24 06:13:37;;;;;;;29.00;22.97;;;;;;;;;;5130746;28;20490;-59
2021/09/24 06:16:04;;;;;;;23.17;19.83;;;;;;;;;;5134344;28;20535;-56
2021/09/24 06:18:33;;;;;;;24.40;19.90;;;;;;;;;;5134525;28;20487;-52
2021/09/24 06:21:02;;;;;;;24.07;21.03;;;;;;;;;;5127971;28;20647;-59
2021/09/24 06:23:45;;;;;;;30.17;20.70;;;;;;;;;;5118091;28;20435;-57
2021/09/24 06:26:13;;;;;;;28.70;21.30;;;;;;;;;;5129802;28;20864;-61
2021/09/24 06:28:40;;;;;;;25.10;19.27;;;;;;;;;;5126487;28;20515;-61
2021/09/24 06:31:07;;;;;;;26.97;20.53;;;;;;;;;;5131057;28;20451;-62
2021/09/24 06:33:35;;;;;;;23.17;18.40;;;;;;;;;;5134695;28;20458;-56
2021/09/24 06:36:06;;;;;;;27.30;20.30;;;;;;;;;;5134409;28;20472;-58
2021/09/24 06:38:33;;;;;;;27.30;18.70;;;;;;;;;;5134356;28;20488;-59
2021/09/24 06:41:02;;;;;;;26.67;20.70;;;;;;;;;;5133657;28;20491;-60
2021/09/24 06:43:35;;;;;;;24.53;19.10;;;;;;;;;;5129482;28;20452;-61
2021/09/24 06:46:13;;;;;;;25.20;18.00;;;;;;;;;;5126480;28;20483;-57
2021/09/24 06:48:40;;;;;;;24.30;17.57;;;;;;;;;;5113655;28;20520;-57
2021/09/24 06:51:08;;;;;;;24.30;17.57;;;;;;;;;;5123458;28;20438;-61
2021/09/24 06:53:35;;;;;;;26.90;19.70;;;;;;;;;;5134812;28;20435;-60
2021/09/24 06:56:04;;;;;;;25.10;17.10;;;;;;;;;;5131576;28;20447;-58
2021/09/24 06:58:31;;;;;;;24.37;18.50;;;;;;;;;;5126294;28;20459;-56
2021/09/24 07:00:58;;;;;;;29.20;20.13;;;;;;;;;;5111973;28;20473;-58
2021/09/24 07:03:26;;;;;;;26.53;18.50;;;;;;;;;;5112933;28;20451;-58
2021/09/24 07:06:06;;;;;;;26.13;20.10;;;;;;;;;;5112950;28;20487;-56
2021/09/24 07:08:35;;;;;;;26.73;18.13;;;;;;;;;;5111874;28;20459;-54
2021/09/24 07:11:03;;;;;;;25.53;20.10;;;;;;;;;;5112290;28;20732;-61
2021/09/24 07:13:32;;;;;;;27.97;19.60;;;;;;;;;;5114203;28;20505;-54
2021/09/24 07:15:59;;;;;;;26.80;19.50;;;;;;;;;;5134006;28;20737;-59
2021/09/24 07:18:27;;;;;;;23.50;18.27;;;;;;;;;;5134326;28;20613;-57
2021/09/24 07:20:55;;;;;;;24.30;18.67;;;;;;;;;;5121323;28;20513;-61
2021/09/24 07:23:22;;;;;;;26.80;19.90;;;;;;;;;;5116301;28;20454;-60
2021/09/24 07:25:51;;;;;;;25.00;18.23;;;;;;;;;;5132498;28;20481;-56
2021/09/24 07:28:20;;;;;;;27.70;18.23;;;;;;;;;;5121314;28;20448;-57
2021/09/24 07:30:48;;;;;;;23.23;17.93;;;;;;;;;;5112190;28;20548;-58
2021/09/24 07:33:15;;;;;;;26.03;18.27;;;;;;;;;;5111723;28;20469;-59
2021/09/24 07:35:42;;;;;;;20.10;17.00;;;;;;;;;;5112663;28;20439;-59
2021/09/24 07:38:11;;;;;;;19.23;15.37;;;;;;;;;;5118358;28;20460;-57
2021/09/24 07:40:38;;;;;;;21.47;15.07;;;;;;;;;;5126681;28;20459;-58
2021/09/24 07:43:06;;;;;;;27.47;19.20;;;;;;;;;;5118620;28;20520;-61
2021/09/24 07:45:35;;;;;;;21.43;13.73;;;;;;;;;;5112276;28;20513;-62
2021/09/24 07:48:03;;;;;;;25.03;16.20;;;;;;;;;;5113099;28;20443;-61
2021/09/24 07:50:30;;;;;;;20.00;14.43;;;;;;;;;;5111321;28;20428;-61
2021/09/24 07:52:58;;;;;;;19.80;16.13;;;;;;;;;;5112200;28;20595;-57
2021/09/24 07:55:26;;;;;;;22.70;16.27;;;;;;;;;;5118818;28;20458;-61
2021/09/24 07:57:55;;;;;;;24.30;15.93;;;;;;;;;;5132877;28;20545;-61
2021/09/24 08:00:24;;;;;;;23.20;14.90;;;;;;;;;;5120585;28;20461;-60
2021/09/24 08:02:54;;;;;;;17.07;13.10;;;;;;;;;;5113535;28;20447;-58
2021/09/24 08:05:21;;;;;;;15.83;12.83;;;;;;;;;;5112334;28;20498;-57
2021/09/24 08:07:48;;;;;;;14.03;11.93;;;;;;;;;;5111316;28;20489;-58
2021/09/24 08:10:17;;;;;;;17.87;13.83;;;;;;;;;;5110658;28;20508;-61
2021/09/24 08:12:45;;;;;;;17.73;12.40;;;;;;;;;;5119003;28;20488;-55
2021/09/24 08:15:13;;;;;;;27.20;10.47;;;;;;;;;;5128209;28;20633;-55
2021/09/24 08:17:53;;;;;;;18.50;13.10;;;;;;;;;;5109986;28;20803;-56
2021/09/24 08:20:20;;;;;;;16.97;10.60;;;;;;;;;;5110217;28;20455;-60
2021/09/24 08:22:48;;;;;;;16.97;10.93;;;;;;;;;;5109488;28;20464;-57
2021/09/24 08:25:16;;;;;;;15.00;10.73;;;;;;;;;;5110818;28;20478;-58
2021/09/24 08:27:44;;;;;;;14.07;10.67;;;;;;;;;;5111915;28;20466;-63
2021/09/24 08:30:14;;;;;;;12.93;11.43;;;;;;;;;;5116114;28;20427;-58
2021/09/24 08:32:46;;;;;;;12.40;9.97;;;;;;;;;;5125906;28;20466;-54
2021/09/24 08:35:16;;;;;;;18.17;9.90;;;;;;;;;;5127945;28;20454;-58
2021/09/24 08:37:47;;;;;;;12.60;9.20;;;;;;;;;;5131790;28;20439;-60
2021/09/24 08:40:14;;;;;;;11.47;8.80;;;;;;;;;;5130597;28;20515;-56
2021/09/24 08:42:53;;;;;;;12.87;9.20;;;;;;;;;;5131005;28;20454;-59
2021/09/24 08:45:26;;;;;;;13.43;9.27;;;;;;;;;;5126195;28;20478;-60
2021/09/24 08:47:56;;;;;;;8.60;7.07;;;;;;;;;;5113174;28;20477;-61
2021/09/24 08:50:27;;;;;;;11.60;8.80;;;;;;;;;;5109505;28;20486;-61
2021/09/24 08:52:54;;;;;;;14.53;9.00;;;;;;;;;;5109715;28;20446;-59
2021/09/24 08:55:28;;;;;;;14.90;9.20;;;;;;;;;;5110462;28;20529;-59
2021/09/24 08:58:06;;;;;;;12.50;9.10;;;;;;;;;;5109712;28;20463;-59
2021/09/24 09:00:42;;;;;;;19.80;11.17;;;;;;;;;;5110469;28;20447;-59
2021/09/24 09:03:13;;;;;;;14.80;12.37;;;;;;;;;;5109633;28;20451;-61
2021/09/24 09:05:43;;;;;;;16.50;12.30;;;;;;;;;;5118305;28;20497;-59
2021/09/24 09:08:16;;;;;;;15.00;11.50;;;;;;;;;;5130631;28;20434;-60
2021/09/24 09:10:48;;;;;;;15.20;13.63;;;;;;;;;;5128862;28;20473;-61
2021/09/24 09:13:17;;;;;;;15.90;14.20;;;;;;;;;;5130818;28;20449;-56
2021/09/24 09:16:00;;;;;;;15.83;14.23;;;;;;;;;;5130250;28;20454;-61
2021/09/24 09:18:31;;;;;;;16.80;13.40;;;;;;;;;;5123434;28;20664;-61
2021/09/24 09:21:00;;;;;;;19.23;12.97;;;;;;;;;;5110039;28;20528;-58
2021/09/24 09:23:36;;;;;;;23.20;15.00;;;;;;;;;;5123848;28;20466;-60
2021/09/24 09:26:12;;;;;;;15.23;13.40;;;;;;;;;;5130740;28;20474;-58
2021/09/24 09:28:51;;;;;;;16.03;13.73;;;;;;;;;;5128440;28;20474;-54
2021/09/24 09:31:23;;;;;;;18.20;13.57;;;;;;;;;;5113850;28;20458;-60
2021/09/24 09:34:02;;;;;;;16.10;12.10;;;;;;;;;;5115325;28;20458;-61
2021/09/24 09:36:32;;;;;;;15.13;13.63;;;;;;;;;;5114147;28;20470;-59
2021/09/24 09:39:03;;;;;;;12.83;11.00;;;;;;;;;;5116190;28;20438;-59
2021/09/24 09:41:38;;;;;;;15.47;12.23;;;;;;;;;;5115029;28;20727;-54
2021/09/24 09:44:06;;;;;;;18.40;14.73;;;;;;;;;;5122453;28;20437;-60
2021/09/24 09:46:36;;;;;;;16.00;13.60;;;;;;;;;;5116421;28;20561;-54
2021/09/24 09:49:07;;;;;;;16.60;12.90;;;;;;;;;;5117017;28;20916;-57
2021/09/24 09:54:30;;;;;;;20.53;12.20;;;;;;;;;;5123138;28;20446;-56
2021/09/24 09:57:10;;;;;;;12.83;10.67;;;;;;;;;;5126667;28;20432;-58
2021/09/24 09:59:50;;;;;;;17.10;14.23;;;;;;;;;;5130380;28;20446;-61
2021/09/24 10:02:19;;;;;;;12.90;11.07;;;;;;;;;;5115161;28;20473;-58
2021/09/24 10:04:47;;;;;;;15.47;12.80;;;;;;;;;;5111876;28;20455;-58
2021/09/24 10:07:33;;;;;;;17.27;11.80;;;;;;;;;;5128207;28;20482;-61
2021/09/24 10:10:08;;;;;;;11.47;10.27;;;;;;;;;;5129366;28;20486;-58
2021/09/24 10:12:38;;;;;;;12.70;10.37;;;;;;;;;;5130808;28;20460;-57
2021/09/24 10:15:30;;;;;;;11.37;9.63;;;;;;;;;;5127415;28;20458;-56
2021/09/24 10:17:58;;;;;;;15.93;9.10;;;;;;;;;;5126735;28;20455;-57
2021/09/24 10:20:25;;;;;;;11.33;8.97;;;;;;;;;;5115724;28;20450;-59
2021/09/24 10:22:56;;;;;;;10.27;7.73;;;;;;;;;;5112123;28;20497;-55
2021/09/24 10:25:27;;;;;;;9.83;7.40;;;;;;;;;;5119653;28;20501;-60
2021/09/24 10:27:55;;;;;;;9.43;7.47;;;;;;;;;;5119311;28;20475;-60
2021/09/24 10:30:28;;;;;;;11.37;7.47;;;;;;;;;;5125687;28;20458;-55
2021/09/24 10:32:58;;;;;;;9.63;7.13;;;;;;;;;;5121584;28;20466;-57
2021/09/24 10:35:45;;;;;;;11.37;7.10;;;;;;;;;;5131565;28;20446;-57
2021/09/24 10:38:13;;;;;;;11.87;7.57;;;;;;;;;;5115837;28;20455;-60
2021/09/24 10:40:54;;;;;;;13.00;6.60;;;;;;;;;;5127695;28;20454;-53
2021/09/24 10:43:22;;;;;;;9.00;5.93;;;;;;;;;;5125329;28;20435;-61
2021/09/24 10:45:49;;;;;;;7.97;5.80;;;;;;;;;;5131793;28;20539;-60
2021/09/24 10:48:33;;;;;;;7.50;5.87;;;;;;;;;;5130548;28;20482;-59
2021/09/24 10:51:18;;;;;;;9.30;5.60;;;;;;;;;;5121774;28;20490;-59
2021/09/24 10:53:48;;;;;;;8.43;6.40;;;;;;;;;;5125026;28;20529;-55
2021/09/24 10:56:30;;;;;;;9.00;5.33;;;;;;;;;;5115314;28;20467;-59
2021/09/24 10:58:59;;;;;;;9.73;5.00;;;;;;;;;;5127410;28;20454;-60
2021/09/24 11:01:39;;;;;;;7.77;6.00;;;;;;;;;;5121320;28;20527;-56
2021/09/24 11:04:12;;;;;;;7.53;5.70;;;;;;;;;;5116241;28;20466;-61
2021/09/24 11:07:02;;;;;;;7.93;5.40;;;;;;;;;;5120551;28;20470;-60
2021/09/24 11:09:29;;;;;;;9.80;4.30;;;;;;;;;;5120883;28;20430;-59
2021/09/24 11:12:04;;;;;;;8.67;5.10;;;;;;;;;;5123114;28;20508;-61
2021/09/24 11:14:41;;;;;;;9.20;5.07;;;;;;;;;;5126549;28;20458;-60
2021/09/24 11:17:15;;;;;;;6.83;4.33;;;;;;;;;;5129185;28;20549;-61
2021/09/24 11:19:45;;;;;;;6.73;4.63;;;;;;;;;;5114780;28;20465;-57
2021/09/24 11:22:31;;;;;;;6.67;4.23;;;;;;;;;;5127951;28;20454;-59
2021/09/24 11:25:29;;;;;;;6.70;5.40;;;;;;;;;;5128995;28;20437;-55
2021/09/24 11:28:04;;;;;;;14.17;5.30;;;;;;;;;;5111052;28;20438;-58
2021/09/24 11:30:34;;;;;;;8.80;5.33;;;;;;;;;;5110672;28;20485;-55
2021/09/24 11:33:02;;;;;;;8.67;5.00;;;;;;;;;;5113652;28;20451;-58
2021/09/24 11:35:36;;;;;;;6.90;4.40;;;;;;;;;;5124991;28;20458;-61
2021/09/24 11:38:07;;;;;;;8.10;4.83;;;;;;;;;;5122954;28;20450;-58
2021/09/24 11:40:37;;;;;;;9.60;5.40;;;;;;;;;;5108408;28;20466;-60
2021/09/24 11:43:14;;;;;;;8.87;5.20;;;;;;;;;;5123803;28;20703;-58
2021/09/24 11:45:54;;;;;;;14.40;7.00;;;;;;;;;;5125437;28;20443;-60
2021/09/24 11:48:54;;;;;;;8.20;3.80;;;;;;;;;;5111693;28;20458;-56
2021/09/24 11:54:21;;;;;;;6.00;4.80;;;;;;;;;;5120567;28;20716;-57
2021/09/24 11:56:51;;;;;;;6.43;4.73;;;;;;;;;;5108724;28;20451;-56
2021/09/24 11:59:20;;;;;;;13.80;4.80;;;;;;;;;;5127076;28;20547;-59
2021/09/24 12:01:47;;;;;;;7.27;4.87;;;;;;;;;;5127842;28;20451;-58
2021/09/24 12:04:15;;;;;;;8.73;6.63;;;;;;;;;;5112924;28;20439;-56
2021/09/24 12:06:50;;;;;;;8.50;4.57;;;;;;;;;;5119949;28;20479;-58
2021/09/24 12:09:22;;;;;;;6.27;4.33;;;;;;;;;;5115605;28;20461;-62
2021/09/24 12:11:50;;;;;;;11.00;4.50;;;;;;;;;;5107119;28;20466;-58
2021/09/24 12:14:19;;;;;;;7.60;3.97;;;;;;;;;;5106502;28;20506;-59
2021/09/24 12:16:52;;;;;;;16.40;5.07;;;;;;;;;;5124161;28;20451;-59
2021/09/24 12:19:21;;;;;;;7.47;3.60;;;;;;;;;;5126225;28;20524;-57
2021/09/24 12:21:59;;;;;;;10.60;4.67;;;;;;;;;;5126229;28;20435;-60
2021/09/24 12:24:29;;;;;;;7.07;4.60;;;;;;;;;;5126510;28;20548;-60
2021/09/24 12:27:05;;;;;;;9.90;5.20;;;;;;;;;;5113032;28;20507;-58
2021/09/24 12:29:33;;;;;;;8.17;4.57;;;;;;;;;;5115922;28;20529;-57
2021/09/24 12:32:07;;;;;;;7.47;5.30;;;;;;;;;;5110605;28;20674;-59
2021/09/24 12:34:41;;;;;;;6.87;4.50;;;;;;;;;;5108196;28;20462;-59
2021/09/24 12:37:10;;;;;;;14.63;4.40;;;;;;;;;;5113795;28;20469;-59
2021/09/24 12:39:48;;;;;;;14.17;5.47;;;;;;;;;;5127222;28;20450;-60
2021/09/24 12:42:17;;;;;;;8.77;3.93;;;;;;;;;;5118345;28;20599;-58
2021/09/24 12:44:52;;;;;;;11.10;5.00;;;;;;;;;;5122080;28;20457;-54
2021/09/24 12:47:22;;;;;;;14.67;4.97;;;;;;;;;;5116162;28;20574;-58
2021/09/24 12:49:50;;;;;;;7.00;4.13;;;;;;;;;;5125468;28;20490;-59
2021/09/24 12:52:20;;;;;;;7.30;5.03;;;;;;;;;;5125915;28;20439;-56
2021/09/24 12:54:47;;;;;;;8.30;4.17;;;;;;;;;;5128783;28;20523;-56
2021/09/24 12:57:16;;;;;;;13.20;4.60;;;;;;;;;;5127851;28;20493;-58
2021/09/24 12:59:46;;;;;;;8.00;4.40;;;;;;;;;;5126732;28;20478;-57
2021/09/24 13:02:23;;;;;;;7.77;4.93;;;;;;;;;;5121650;28;20466;-60
2021/09/24 13:04:58;;;;;;;8.30;4.23;;;;;;;;;;5128893;28;20465;-57
2021/09/24 13:07:53;;;;;;;8.70;5.10;;;;;;;;;;5117109;28;20482;-61
2021/09/24 13:10:21;;;;;;;7.57;4.93;;;;;;;;;;5108357;28;20450;-59
2021/09/24 13:12:48;;;;;;;14.30;5.40;;;;;;;;;;5111575;28;20527;-62
2021/09/24 13:15:24;;;;;;;8.47;5.80;;;;;;;;;;5116756;28;20463;-59
2021/09/24 13:17:55;;;;;;;8.67;4.63;;;;;;;;;;5121960;28;20461;-55
2021/09/24 13:20:38;;;;;;;9.00;5.00;;;;;;;;;;5113090;28;20475;-59
2021/09/24 13:23:07;;;;;;;14.37;6.97;;;;;;;;;;5118560;28;20458;-60
2021/09/24 13:25:35;;;;;;;5.37;4.30;;;;;;;;;;5113078;28;20487;-57
2021/09/24 13:28:03;;;;;;;8.90;4.37;;;;;;;;;;5123131;28;20491;-57
2021/09/24 13:30:35;;;;;;;8.40;4.00;;;;;;;;;;5124955;28;20462;-61
2021/09/24 13:33:06;;;;;;;7.60;3.83;;;;;;;;;;5109529;28;20546;-61
2021/09/24 13:35:48;;;;;;;5.50;3.47;;;;;;;;;;5130047;28;20484;-57
2021/09/24 13:38:29;;;;;;;11.70;4.83;;;;;;;;;;5130535;28;20454;-57
2021/09/24 13:41:16;;;;;;;8.77;3.60;;;;;;;;;;5131439;28;20462;-59
2021/09/24 13:46:30;;;;;;;6.50;3.67;;;;;;;;;;5130031;28;20490;-60
2021/09/24 13:48:57;;;;;;;5.27;3.60;;;;;;;;;;5130272;28;20465;-58
2021/09/24 13:51:32;;;;;;;11.40;8.17;;;;;;;;;;5127274;28;20467;-59
2021/09/24 13:54:07;;;;;;;9.33;4.30;;;;;;;;;;5125384;28;20519;-60
2021/09/24 13:56:35;;;;;;;5.30;3.83;;;;;;;;;;5131147;28;20462;-57
2021/09/24 13:59:04;;;;;;;5.83;3.50;;;;;;;;;;5125194;28;20525;-58
2021/09/24 14:01:42;;;;;;;6.70;4.70;;;;;;;;;;5112761;28;20448;-60
2021/09/24 14:04:10;;;;;;;4.77;2.23;;;;;;;;;;5130696;28;20469;-59
2021/09/24 14:06:43;;;;;;;9.07;4.20;;;;;;;;;;5127009;28;20801;-59
2021/09/24 14:09:28;;;;;;;6.80;5.03;;;;;;;;;;5109884;28;20489;-56
2021/09/24 14:12:29;;;;;;;6.70;3.23;;;;;;;;;;5126147;28;20462;-56
2021/09/24 14:14:57;;;;;;;5.50;3.40;;;;;;;;;;5122273;28;20479;-56
2021/09/24 14:17:29;;;;;;;11.33;4.07;;;;;;;;;;5120474;28;20458;-59
2021/09/24 14:20:06;;;;;;;7.73;4.10;;;;;;;;;;5119014;28;20439;-57
2021/09/24 14:23:02;;;;;;;5.67;3.73;;;;;;;;;;5118373;28;20451;-59
2021/09/24 14:25:42;;;;;;;12.23;8.40;;;;;;;;;;5122350;28;20506;-59
2021/09/24 14:28:10;;;;;;;9.20;3.80;;;;;;;;;;5118924;28;20470;-57
2021/09/24 14:30:47;;;;;;;7.07;3.70;;;;;;;;;;5128392;28;20554;-60
2021/09/24 14:33:15;;;;;;;15.93;8.57;;;;;;;;;;5125596;28;20491;-58
2021/09/24 14:35:46;;;;;;;6.10;3.40;;;;;;;;;;5129671;28;20446;-58
2021/09/24 14:38:14;;;;;;;6.23;4.70;;;;;;;;;;5131926;28;20483;-61
2021/09/24 14:41:00;;;;;;;10.43;4.20;;;;;;;;;;5124950;28;20458;-58
2021/09/24 14:43:38;;;;;;;7.60;4.40;;;;;;;;;;5121169;28;20458;-58
2021/09/24 14:46:13;;;;;;;9.40;3.67;;;;;;;;;;5124729;28;20484;-55
2021/09/24 14:48:42;;;;;;;6.10;3.53;;;;;;;;;;5128453;28;20524;-54
2021/09/24 14:51:13;;;;;;;7.13;3.80;;;;;;;;;;5125457;28;20529;-62
2021/09/24 14:53:41;;;;;;;8.20;3.73;;;;;;;;;;5112684;28;20485;-55
2021/09/24 14:56:09;;;;;;;8.40;4.10;;;;;;;;;;5117898;28;20493;-57
2021/09/24 14:59:00;;;;;;;14.33;4.00;;;;;;;;;;5118846;28;20482;-57
2021/09/24 15:01:37;;;;;;;8.20;4.60;;;;;;;;;;5131504;28;20530;-60
2021/09/24 15:10:04;;;;;;;5.97;3.53;;;;;;;;;;5125000;28;20451;-60
2021/09/24 15:12:45;;;;;;;5.70;4.43;;;;;;;;;;5117885;28;20525;-60